Latest Weather Observations for Cape Moreton

IDQ60901

Issued at 4:51 pm EST Thursday 24 August 2017 (issued every 10 minutes, with the page automatically refreshed every 10 minutes)

About weather observations | Map of Brisbane area stations | Latest observations for Brisbane area | Other Formats
Station Details ID: 040043 Name: CAPE MORETON LIGHTHOUSE Lat: -27.03 Lon: 153.47 Height: 99.9 m
Data from the previous 72 hours. | See also: Recent months at Cape Moreton
Date/Time
EST
Temp
°C
App
Temp
°C
Dew
Point
°C
Rel
Hum
%
Delta-T
°C
Wind Press
QNH
hPa
Press
MSL
hPa
Rain since
9am
mm
Dir  Spd
km/h
Gust
km/h
Spd
kts
Gust
kts
24/04:30pm 20.6 17.6 16.8 79 2.3 N 28 35 15 19 1013.2 1013.0 0.4
24/04:00pm 21.0 18.3 17.6 81 2.1 N 28 41 15 22 1013.2 1013.0 0.4
24/03:30pm 20.0 16.9 17.4 85 1.6 N 30 37 16 20 1013.5 1013.3 0.4
24/03:00pm 20.4 18.4 17.4 83 1.8 N 24 35 13 19 1013.3 1013.1 0.2
24/02:30pm 20.1 16.8 17.1 83 1.8 N 30 41 16 22 1013.4 1013.2 0.2
24/02:07pm 20.3 16.8 17.5 84 1.7 N 32 54 17 29 1012.7 1012.5 0.2
24/02:00pm 20.5 16.9 16.3 77 2.5 N 30 37 16 20 1013.7 1013.5 0.2
24/01:30pm 21.2 17.9 16.0 72 3.1 NNW 28 39 15 21 1014.4 1014.2 0.2
24/01:00pm 21.5 18.2 16.9 75 2.8 NNW 30 41 16 22 1014.8 1014.6 0.2
24/12:30pm 20.3 19.2 17.7 85 1.6 NNW 20 30 11 16 1015.5 1015.3 0.2
24/12:00pm 19.5 17.3 17.8 90 1.0 NNW 26 35 14 19 1016.0 1015.8 0.2
24/11:30am 20.1 19.5 18.4 90 1.1 NNW 19 28 10 15 1016.9 1016.7 0.2
24/11:00am 19.6 17.6 17.4 87 1.3 NW 24 37 13 20 1017.2 1017.0 0.0
24/10:30am 20.2 17.0 17.2 83 1.8 NW 30 39 16 21 1017.4 1017.2 0.0
24/10:00am 20.8 17.3 17.4 81 2.1 NW 32 43 17 23 1017.5 1017.3 0.0
24/09:30am 20.1 17.0 17.5 85 1.6 NW 30 41 16 22 1017.6 1017.4 0.0
24/09:00am 20.1 16.6 17.5 85 1.6 NNW 32 43 17 23 1017.6 1017.4 0.0
24/08:30am 19.5 15.8 17.5 88 1.2 NW 33 43 18 23 1017.8 1017.6 0.0
24/08:00am 19.5 16.2 18.0 91 0.9 NW 32 41 17 22 1017.7 1017.5 0.0
24/07:30am 19.6 15.6 17.7 89 1.2 NW 35 48 19 26 1017.5 1017.3 0.0
24/07:00am 19.4 15.8 17.7 90 1.0 NNW 33 46 18 25 1017.2 1017.0 0.0
24/06:30am 18.9 15.3 17.7 93 0.7 NW 33 46 18 25 1017.0 1016.8 0.0
24/06:00am 19.2 16.1 18.4 95 0.5 NW 32 43 17 23 1017.0 1016.8 0.0
24/05:30am 19.4 16.0 18.2 93 0.7 NW 33 44 18 24 1016.7 1016.5 0.0
24/05:00am 19.4 15.6 18.1 92 0.8 NW 35 48 19 26 1016.5 1016.3 0.0
24/04:30am 19.8 16.4 18.1 90 1.1 NNW 33 48 18 26 1016.1 1015.9 0.0
24/04:00am 19.8 15.9 17.9 89 1.2 NW 35 48 19 26 1016.2 1016.0 0.0
24/03:30am 19.8 15.9 17.9 89 1.2 NNW 35 46 19 25 1016.1 1015.9 0.0
24/03:00am 19.9 15.9 17.7 87 1.4 NNW 35 50 19 27 1016.2 1016.0 0.0
24/02:30am 19.9 16.0 17.9 88 1.2 NNW 35 46 19 25 1016.5 1016.3 0.0
24/02:00am 20.0 14.9 17.8 87 1.4 NNW 41 56 22 30 1016.7 1016.5 0.0
24/01:30am 20.0 16.1 17.8 87 1.4 NNW 35 50 19 27 1017.1 1016.9 0.0
24/01:00am 19.9 16.0 17.9 88 1.2 NNW 35 50 19 27 1017.5 1017.3 0.0
24/12:30am 20.1 16.1 17.7 86 1.5 NNW 35 46 19 25 1017.6 1017.4 0.0
24/12:00am 20.0 15.7 17.0 83 1.8 NNW 35 46 19 25 1017.8 1017.6 0.0
 
Date/Time
EST
Temp
°C
App
Temp
°C
Dew
Point
°C
Rel
Hum
%
Delta-T
°C
Wind Press
QNH
hPa
Press
MSL
hPa
Rain since
9am
mm
Dir  Spd
km/h
Gust
km/h
Spd
kts
Gust
kts
23/11:30pm 20.2 15.7 16.4 79 2.3 NNW 35 46 19 25 1018.1 1017.9 0.0
23/11:00pm 20.5 16.1 15.7 74 2.9 NNW 33 43 18 23 1018.0 1017.8 0.0
23/10:30pm 20.7 17.1 16.3 76 2.7 NNW 30 43 16 23 1018.1 1017.9 0.0
23/10:00pm 20.7 16.9 17.1 80 2.2 NNW 33 44 18 24 1017.9 1017.7 0.0
23/09:30pm 21.0 17.2 18.9 88 1.3 N 37 46 20 25 1017.9 1017.7 0.0
23/09:00pm 21.0 17.9 18.4 85 1.6 N 32 43 17 23 1018.0 1017.8 0.0
23/08:30pm 20.9 18.5 18.3 85 1.6 N 28 37 15 20 1018.0 1017.8 0.0
23/08:00pm 20.9 18.7 18.7 87 1.4 N 28 37 15 20 1017.9 1017.7 0.0
23/07:30pm 20.9 18.7 18.8 88 1.3 N 28 35 15 19 1018.0 1017.8 0.0
23/07:00pm 20.8 19.3 18.6 87 1.4 N 24 30 13 16 1017.8 1017.6 0.0
23/06:30pm 20.8 19.4 18.0 84 1.7 N 22 30 12 16 1017.5 1017.3 0.0
23/06:00pm 20.8 19.7 18.6 87 1.4 N 22 30 12 16 1017.4 1017.2 0.0
23/05:30pm 20.8 20.3 18.6 87 1.4 N 19 26 10 14 1017.5 1017.3 0.0
23/05:00pm 20.9 20.5 18.1 84 1.7 N 17 22 9 12 1017.3 1017.1 0.0
23/04:30pm 20.9 21.4 18.3 85 1.6 NNE 13 19 7 10 1017.1 1016.9 0.0
23/04:00pm 20.9 20.7 17.7 82 2.0 NE 15 19 8 10 1017.2 1017.0 0.0
23/03:30pm 21.0 20.8 16.8 77 2.6 NE 13 19 7 10 1017.3 1017.1 0.0
23/03:00pm 20.9 20.5 16.1 74 2.9 NE 13 17 7 9 1017.4 1017.2 0.0
23/02:30pm 20.9 20.7 15.7 72 3.1 NE 11 15 6 8 1017.6 1017.4 0.0
23/02:00pm 21.3 20.6 16.5 74 2.9 NE 15 19 8 10 1017.9 1017.7 0.0
23/01:30pm 22.1 21.9 17.5 75 2.9 ENE 15 19 8 10 1018.1 1017.9 0.0
23/01:00pm 21.5 21.1 16.2 72 3.2 ENE 13 17 7 9 1018.5 1018.3 0.0
23/12:30pm 22.5 22.5 17.2 72 3.3 ENE 13 15 7 8 1018.9 1018.7 0.0
23/12:00pm 22.2 21.9 16.5 70 3.5 ENE 13 17 7 9 1019.5 1019.3 0.0
23/11:30am 22.7 23.1 16.3 67 3.9 NE 9 13 5 7 1019.9 1019.8 0.0
23/11:00am 22.3 22.7 15.2 64 4.2 NNW 7 15 4 8 1020.2 1020.1 0.0
23/10:30am 21.5 22.4 15.1 67 3.8 W 4 9 2 5 1020.6 1020.5 0.0
23/10:00am 21.3 20.9 15.2 68 3.6 SW 11 19 6 10 1020.6 1020.5 0.0
23/09:30am 20.6 20.2 15.2 71 3.2 W 11 17 6 9 1020.8 1020.7 0.0
23/09:00am 20.5 20.4 15.9 75 2.8 SW 11 17 6 9 1020.9 1020.8 0.2
23/08:30am 19.5 19.6 16.5 83 1.8 W 11 20 6 11 1020.7 1020.6 0.2
23/08:00am 19.2 18.5 16.4 84 1.7 WNW 15 22 8 12 1020.6 1020.5 0.2
23/07:30am 18.9 17.5 17.0 89 1.2 WNW 20 28 11 15 1020.3 1020.2 0.2
23/07:00am 18.7 16.7 17.5 93 0.7 WNW 24 33 13 18 1020.0 1019.9 0.2
23/06:30am 18.6 16.6 17.4 93 0.7 WNW 24 32 13 17 1019.7 1019.6 0.2
23/06:00am 18.6 16.5 17.1 91 0.9 WNW 24 33 13 18 1019.6 1019.5 0.2
23/05:30am 18.8 16.4 17.3 91 0.9 WNW 26 35 14 19 1019.4 1019.2 0.2
23/05:00am 18.6 16.5 17.1 91 0.9 NW 24 35 13 19 1019.0 1018.8 0.2
23/04:30am 18.7 16.2 17.0 90 1.0 NW 26 35 14 19 1018.7 1018.5 0.2
23/04:00am 19.0 16.2 17.3 90 1.0 NW 28 37 15 20 1018.6 1018.4 0.2
23/03:30am 18.9 14.9 16.7 87 1.3 NW 33 43 18 23 1018.6 1018.4 0.2
23/03:00am 19.0 15.4 17.3 90 1.0 NW 32 39 17 21 1018.6 1018.4 0.2
23/02:30am 19.2 14.7 17.3 89 1.2 NW 37 46 20 25 1018.6 1018.4 0.2
23/02:00am 19.5 16.2 18.0 91 0.9 NW 32 43 17 23 1018.7 1018.5 0.2
23/01:30am 19.4 15.7 17.4 88 1.2 NW 33 44 18 24 1018.7 1018.5 0.2
23/01:00am 19.5 15.9 17.3 87 1.3 NW 32 43 17 23 1019.0 1018.8 0.2
23/12:30am 19.9 16.1 17.3 85 1.6 NW 33 44 18 24 1019.3 1019.1 0.2
23/12:00am 20.0 16.1 17.0 83 1.8 NNW 33 44 18 24 1019.1 1018.9 0.2
 
Date/Time
EST
Temp
°C
App
Temp
°C
Dew
Point
°C
Rel
Hum
%
Delta-T
°C
Wind Press
QNH
hPa
Press
MSL
hPa
Rain since
9am
mm
Dir  Spd
km/h
Gust
km/h
Spd
kts
Gust
kts
22/11:30pm 20.0 15.9 16.4 80 2.2 NNW 33 44 18 24 1019.2 1019.0 0.2
22/11:00pm 20.0 16.0 16.2 79 2.3 NNW 32 43 17 23 1019.3 1019.1 0.2
22/10:30pm 20.0 16.8 16.2 79 2.3 NNW 28 41 15 22 1019.4 1019.2 0.2
22/10:00pm 20.1 16.3 17.1 83 1.8 NNW 33 46 18 25 1019.3 1019.1 0.2
22/09:30pm 20.5 15.4 17.7 84 1.7 NNW 41 50 22 27 1019.2 1019.0 0.2
22/09:00pm 20.5 15.8 17.7 84 1.7 N 39 48 21 26 1019.0 1018.8 0.2
22/08:30pm 20.5 16.2 17.9 85 1.6 N 37 46 20 25 1018.9 1018.7 0.2
22/08:00pm 20.4 16.3 17.4 83 1.8 N 35 44 19 24 1018.7 1018.5 0.2
22/07:30pm 20.2 17.4 17.4 84 1.7 N 28 41 15 22 1018.4 1018.2 0.2
22/07:00pm 20.5 17.0 17.5 83 1.8 N 32 41 17 22 1018.2 1018.0 0.2
22/06:30pm 20.5 17.2 17.1 81 2.1 N 30 39 16 21 1017.8 1017.6 0.2
22/06:00pm 20.2 17.1 16.6 80 2.2 N 28 39 15 21 1017.4 1017.2 0.2
22/05:30pm 20.4 16.6 16.6 79 2.3 N 32 39 17 21 1017.2 1017.0 0.2
22/05:00pm 20.5 16.9 16.3 77 2.5 N 30 41 16 22 1016.8 1016.6 0.2
22/04:30pm 20.8 16.8 16.2 75 2.8 NNE 32 39 17 21 1016.8 1016.6 0.2
22/04:00pm 21.1 17.4 15.9 72 3.1 NNE 30 37 16 20 1016.7 1016.5 0.2
22/03:30pm 21.4 18.1 16.1 72 3.2 NNE 28 35 15 19 1016.7 1016.5 0.2
22/03:00pm 21.7 18.9 15.3 67 3.8 NNE 24 33 13 18 1016.8 1016.6 0.2
22/02:30pm 21.9 19.3 16.0 69 3.6 NNE 24 30 13 16 1016.8 1016.6 0.2
22/02:00pm 22.2 19.8 15.5 66 4.0 N 22 30 12 16 1016.9 1016.7 0.2
22/01:30pm 21.6 18.0 15.2 67 3.8 N 28 35 15 19 1017.2 1017.0 0.2
22/01:00pm 21.8 18.3 15.6 68 3.7 N 28 35 15 19 1017.6 1017.4 0.2
22/12:30pm 21.4 17.9 14.6 65 4.0 NNW 26 35 14 19 1018.0 1017.8 0.2
22/12:00pm 21.6 18.7 15.2 67 3.8 NNW 24 35 13 19 1018.5 1018.3 0.2
22/11:30am 21.5 18.4 14.6 65 4.1 NNW 24 37 13 20 1018.9 1018.7 0.0
22/11:00am 20.7 17.1 15.3 71 3.2 NW 28 35 15 19 1019.5 1019.3 0.0
22/10:30am 21.0 17.7 14.9 68 3.6 NW 26 35 14 19 1019.8 1019.7 0.0
22/10:00am 20.9 17.8 14.5 67 3.7 NW 24 32 13 17 1020.1 1020.0 0.0
22/09:30am 20.5 17.9 14.8 70 3.4 NW 22 30 12 16 1020.3 1020.2 0.0
22/09:00am 20.1 17.6 15.1 73 2.9 NW 22 30 12 16 1020.2 1020.1 1.6
22/08:30am 19.9 17.8 15.1 74 2.8 NW 20 28 11 15 1020.1 1020.0 1.6
22/08:00am 19.8 16.6 14.2 70 3.2 NNW 24 35 13 19 1019.8 1019.7 1.6
22/07:30am 19.4 15.2 13.6 69 3.3 NNW 28 39 15 21 1019.7 1019.6 1.6
22/07:00am 19.2 16.2 14.7 75 2.6 NNW 24 33 13 18 1019.4 1019.2 1.6
22/06:30am 18.7 16.2 14.0 74 2.7 NNW 20 32 11 17 1019.3 1019.1 1.6
22/06:00am 18.3 15.8 14.2 77 2.4 NNW 20 30 11 16 1019.2 1019.0 1.6
22/05:30am 18.1 15.8 14.2 78 2.2 NNW 19 28 10 15 1018.9 1018.7 1.6
22/05:00am 17.9 16.1 14.4 80 2.0 NNW 17 24 9 13 1018.9 1018.7 1.6
22/04:30am 18.1 15.8 14.0 77 2.4 NW 19 26 10 14 1018.8 1018.6 1.6
22/04:00am 18.1 15.9 14.4 79 2.1 NW 19 26 10 14 1018.8 1018.6 1.6
22/03:30am 18.0 15.7 14.7 81 1.9 NW 20 28 11 15 1018.7 1018.5 1.6
22/03:00am 18.0 16.4 14.9 82 1.8 WNW 17 22 9 12 1018.7 1018.5 1.6
22/02:30am 18.6 15.1 12.1 66 3.6 NNW 22 30 12 16 1018.8 1018.6 1.4
22/02:00am 18.7 15.4 12.7 68 3.4 N 22 30 12 16 1018.3 1018.1 1.4
22/01:30am 18.6 14.8 12.4 67 3.5 N 24 32 13 17 1019.0 1018.8 1.4
22/01:00am 18.9 15.2 12.6 67 3.5 N 24 35 13 19 1019.0 1018.8 1.4
22/12:30am 18.7 15.8 12.2 66 3.6 N 19 28 10 15 1019.3 1019.1 1.4
22/12:00am 18.7 15.6 12.2 66 3.6 NNW 20 28 11 15 1019.7 1019.6 1.4
 
Date/Time
EST
Temp
°C
App
Temp
°C
Dew
Point
°C
Rel
Hum
%
Delta-T
°C
Wind Press
QNH
hPa
Press
MSL
hPa
Rain since
9am
mm
Dir  Spd
km/h
Gust
km/h
Spd
kts
Gust
kts
21/11:30pm 18.7 15.1 12.0 65 3.7 N 22 28 12 15 1019.5 1019.3 1.4
21/11:00pm 18.5 14.9 12.0 66 3.6 N 22 30 12 16 1019.2 1019.0 1.4
21/10:30pm 18.5 15.4 12.3 67 3.5 N 20 28 11 15 1019.4 1019.2 1.4
21/10:00pm 18.5 15.3 12.0 66 3.6 N 20 28 11 15 1019.5 1019.3 1.4
21/09:30pm 18.4 15.3 12.2 67 3.5 N 20 28 11 15 1019.4 1019.2 1.4
21/09:00pm 18.3 15.1 11.8 66 3.6 N 20 28 11 15 1019.5 1019.3 1.4
21/08:30pm 18.4 15.3 12.2 67 3.5 N 20 26 11 14 1019.4 1019.2 1.4
21/08:00pm 18.3 15.2 12.1 67 3.4 N 20 28 11 15 1019.4 1019.2 1.4
21/07:30pm 18.1 15.0 12.3 69 3.2 NNE 20 28 11 15 1019.3 1019.1 1.4
21/07:00pm 18.0 14.2 12.5 70 3.1 NNE 24 32 13 17 1019.0 1018.8 1.4
21/06:30pm 17.6 13.3 12.1 70 3.0 NNE 26 33 14 18 1018.5 1018.3 1.4
21/06:00pm 17.6 13.5 12.7 73 2.7 NNE 26 32 14 17 1018.2 1018.0 1.4
21/05:30pm 17.2 14.4 13.1 77 2.3 NE 20 26 11 14 1018.6 1018.4 1.4
21/05:00pm 17.2 14.1 13.5 79 2.1 ENE 22 28 12 15 1018.5 1018.3 1.4

Latest Capital City Observations: Canberra | Sydney | Melbourne | Brisbane | Adelaide | Perth | Hobart | Darwin

Other Formats:

Comma delimited format used in spreadsheet applications
http://www.bom.gov.au/fwo/IDQ60901/IDQ60901.94594.axf

JavaScript Object Notation format (JSON) in row-major order
http://www.bom.gov.au/fwo/IDQ60901/IDQ60901.94594.json